sensor_id;sensor_type;location;lat;lon;timestamp;pressure;altitude;pressure_sealevel;temperature;humidity
19751;BME280;4663;49.120;9.730;2022-08-25T00:01:17;98201.66;;;15.25;80.59
19751;BME280;4663;49.120;9.730;2022-08-25T00:03:43;98202.53;;;15.06;79.75
19751;BME280;4663;49.120;9.730;2022-08-25T00:06:10;98204.88;;;14.88;81.74
19751;BME280;4663;49.120;9.730;2022-08-25T00:08:36;98206.13;;;14.93;81.69
19751;BME280;4663;49.120;9.730;2022-08-25T00:11:09;98198.59;;;14.81;81.71
19751;BME280;4663;49.120;9.730;2022-08-25T00:13:40;98197.97;;;14.99;79.33
19751;BME280;4663;49.120;9.730;2022-08-25T00:16:09;98199.59;;;14.60;82.64
19751;BME280;4663;49.120;9.730;2022-08-25T00:18:36;98197.72;;;14.47;83.71
19751;BME280;4663;49.120;9.730;2022-08-25T00:21:03;98199.84;;;14.79;82.82
19751;BME280;4663;49.120;9.730;2022-08-25T00:23:28;98205.69;;;14.75;82.73
19751;BME280;4663;49.120;9.730;2022-08-25T00:25:53;98208.63;;;14.81;81.26
19751;BME280;4663;49.120;9.730;2022-08-25T00:28:19;98209.88;;;14.85;81.81
19751;BME280;4663;49.120;9.730;2022-08-25T00:30:45;98208.19;;;14.91;81.23
19751;BME280;4663;49.120;9.730;2022-08-25T00:33:11;98205.69;;;14.75;81.20
19751;BME280;4663;49.120;9.730;2022-08-25T00:35:37;98203.16;;;14.54;83.47
19751;BME280;4663;49.120;9.730;2022-08-25T00:38:02;98191.47;;;14.60;81.14
19751;BME280;4663;49.120;9.730;2022-08-25T00:40:28;98202.78;;;14.84;82.79
19751;BME280;4663;49.120;9.730;2022-08-25T00:42:54;98198.16;;;14.64;83.03
19751;BME280;4663;49.120;9.730;2022-08-25T00:45:20;98207.31;;;14.49;84.14
19751;BME280;4663;49.120;9.730;2022-08-25T00:47:46;98197.28;;;14.70;82.90
19751;BME280;4663;49.120;9.730;2022-08-25T00:50:12;98194.78;;;14.48;83.32
19751;BME280;4663;49.120;9.730;2022-08-25T00:52:41;98197.06;;;14.38;84.31
19751;BME280;4663;49.120;9.730;2022-08-25T00:55:12;98191.44;;;14.46;83.70
19751;BME280;4663;49.120;9.730;2022-08-25T00:57:41;98191.22;;;14.48;83.99
19751;BME280;4663;49.120;9.730;2022-08-25T01:00:21;98192.28;;;14.40;84.00
19751;BME280;4663;49.120;9.730;2022-08-25T01:02:47;98189.78;;;14.38;82.90
19751;BME280;4663;49.120;9.730;2022-08-25T01:05:12;98193.75;;;14.49;83.03
19751;BME280;4663;49.120;9.730;2022-08-25T01:07:40;98188.91;;;14.24;84.38
19751;BME280;4663;49.120;9.730;2022-08-25T01:10:08;98193.34;;;14.39;83.43
19751;BME280;4663;49.120;9.730;2022-08-25T01:12:34;98193.53;;;14.31;83.91
19751;BME280;4663;49.120;9.730;2022-08-25T01:15:03;98201.84;;;14.22;85.32
19751;BME280;4663;49.120;9.730;2022-08-25T01:17:34;98189.78;;;14.32;83.70
19751;BME280;4663;49.120;9.730;2022-08-25T01:19:59;98191.22;;;14.28;82.74
19751;BME280;4663;49.120;9.730;2022-08-25T01:22:25;98179.72;;;14.25;82.99
19751;BME280;4663;49.120;9.730;2022-08-25T01:24:57;98180.13;;;14.22;82.97
19751;BME280;4663;49.120;9.730;2022-08-25T01:27:23;98175.53;;;14.16;85.04
19751;BME280;4663;49.120;9.730;2022-08-25T01:29:49;98176.13;;;14.05;85.40
19751;BME280;4663;49.120;9.730;2022-08-25T01:32:14;98172.63;;;14.24;82.82
19751;BME280;4663;49.120;9.730;2022-08-25T01:34:42;98170.72;;;14.11;83.78
19751;BME280;4663;49.120;9.730;2022-08-25T01:37:11;98176.75;;;14.07;84.75
19751;BME280;4663;49.120;9.730;2022-08-25T01:39:36;98172.78;;;14.03;83.19
19751;BME280;4663;49.120;9.730;2022-08-25T01:44:32;98169.44;;;14.01;85.28
19751;BME280;4663;49.120;9.730;2022-08-25T01:47:00;98174.47;;;14.04;86.33
19751;BME280;4663;49.120;9.730;2022-08-25T01:49:26;98181.22;;;13.72;87.44
19751;BME280;4663;49.120;9.730;2022-08-25T01:52:06;98177.06;;;13.77;86.88
19751;BME280;4663;49.120;9.730;2022-08-25T01:54:34;98176.78;;;13.58;87.90
19751;BME280;4663;49.120;9.730;2022-08-25T01:57:00;98162.91;;;13.81;85.28
19751;BME280;4663;49.120;9.730;2022-08-25T01:59:26;98169.59;;;13.85;85.92
19751;BME280;4663;49.120;9.730;2022-08-25T02:01:52;98176.66;;;13.80;86.56
19751;BME280;4663;49.120;9.730;2022-08-25T02:04:17;98165.16;;;13.71;85.25
19751;BME280;4663;49.120;9.730;2022-08-25T02:06:43;98163.28;;;13.71;85.56
19751;BME280;4663;49.120;9.730;2022-08-25T02:09:14;98157.53;;;13.88;84.95
19751;BME280;4663;49.120;9.730;2022-08-25T02:11:43;98162.81;;;13.61;86.78
19751;BME280;4663;49.120;9.730;2022-08-25T02:14:09;98152.47;;;13.85;84.85
19751;BME280;4663;49.120;9.730;2022-08-25T02:16:37;98152.47;;;13.85;83.96
19751;BME280;4663;49.120;9.730;2022-08-25T02:19:05;98159.41;;;13.94;84.87
19751;BME280;4663;49.120;9.730;2022-08-25T02:21:32;98158.50;;;13.73;86.02
19751;BME280;4663;49.120;9.730;2022-08-25T02:23:59;98158.94;;;13.77;86.91
19751;BME280;4663;49.120;9.730;2022-08-25T02:26:25;98154.50;;;13.69;87.51
19751;BME280;4663;49.120;9.730;2022-08-25T02:28:51;98143.44;;;13.64;87.73
19751;BME280;4663;49.120;9.730;2022-08-25T02:31:20;98143.00;;;13.60;87.25
19751;BME280;4663;49.120;9.730;2022-08-25T02:33:45;98148.47;;;13.67;87.37
19751;BME280;4663;49.120;9.730;2022-08-25T02:36:11;98144.56;;;13.28;88.47
19751;BME280;4663;49.120;9.730;2022-08-25T02:38:37;98148.97;;;13.42;87.76
19751;BME280;4663;49.120;9.730;2022-08-25T02:41:12;98145.63;;;13.33;87.45
19751;BME280;4663;49.120;9.730;2022-08-25T02:43:39;98147.13;;;13.50;85.40
19751;BME280;4663;49.120;9.730;2022-08-25T02:46:05;98144.03;;;13.59;84.05
19751;BME280;4663;49.120;9.730;2022-08-25T02:48:31;98149.44;;;13.53;85.70
19751;BME280;4663;49.120;9.730;2022-08-25T02:50:58;98150.63;;;13.37;87.74
19751;BME280;4663;49.120;9.730;2022-08-25T02:53:25;98148.56;;;13.45;85.98
19751;BME280;4663;49.120;9.730;2022-08-25T02:55:52;98148.81;;;13.51;84.90
19751;BME280;4663;49.120;9.730;2022-08-25T02:58:18;98141.50;;;13.44;86.13
19751;BME280;4663;49.120;9.730;2022-08-25T03:00:44;98144.59;;;13.41;86.54
19751;BME280;4663;49.120;9.730;2022-08-25T03:03:10;98143.50;;;13.29;87.49
19751;BME280;4663;49.120;9.730;2022-08-25T03:05:35;98148.69;;;13.24;87.64
19751;BME280;4663;49.120;9.730;2022-08-25T03:08:01;98144.25;;;13.16;87.35
19751;BME280;4663;49.120;9.730;2022-08-25T03:10:27;98131.78;;;13.21;87.41
19751;BME280;4663;49.120;9.730;2022-08-25T03:12:53;98134.28;;;13.23;88.09
19751;BME280;4663;49.120;9.730;2022-08-25T03:15:18;98142.25;;;12.96;89.79
19751;BME280;4663;49.120;9.730;2022-08-25T03:17:45;98148.56;;;12.75;90.97
19751;BME280;4663;49.120;9.730;2022-08-25T03:20:13;98145.25;;;12.79;91.62
19751;BME280;4663;49.120;9.730;2022-08-25T03:22:40;98140.94;;;12.85;89.39
19751;BME280;4663;49.120;9.730;2022-08-25T03:25:06;98137.66;;;12.96;88.72
19751;BME280;4663;49.120;9.730;2022-08-25T03:27:50;98136.69;;;13.04;86.52
19751;BME280;4663;49.120;9.730;2022-08-25T03:30:16;98134.69;;;13.20;86.42
19751;BME280;4663;49.120;9.730;2022-08-25T03:32:42;98134.28;;;13.16;87.46
19751;BME280;4663;49.120;9.730;2022-08-25T03:35:08;98143.72;;;12.99;89.70
19751;BME280;4663;49.120;9.730;2022-08-25T03:37:36;98137.63;;;12.90;87.38
19751;BME280;4663;49.120;9.730;2022-08-25T03:40:04;98141.28;;;13.04;86.54
19751;BME280;4663;49.120;9.730;2022-08-25T03:42:30;98143.34;;;13.02;88.02
19751;BME280;4663;49.120;9.730;2022-08-25T03:44:56;98144.09;;;12.95;87.83
19751;BME280;4663;49.120;9.730;2022-08-25T03:47:21;98140.06;;;13.06;87.18
19751;BME280;4663;49.120;9.730;2022-08-25T03:49:50;98135.06;;;13.10;86.85
19751;BME280;4663;49.120;9.730;2022-08-25T03:52:15;98136.31;;;13.14;86.63
19751;BME280;4663;49.120;9.730;2022-08-25T03:54:42;98141.75;;;13.14;86.33
19751;BME280;4663;49.120;9.730;2022-08-25T03:57:08;98145.28;;;13.08;85.90
19751;BME280;4663;49.120;9.730;2022-08-25T03:59:33;98158.25;;;12.91;86.69
19751;BME280;4663;49.120;9.730;2022-08-25T04:02:02;98161.38;;;12.88;87.49
19751;BME280;4663;49.120;9.730;2022-08-25T04:04:27;98160.97;;;12.91;87.39
19751;BME280;4663;49.120;9.730;2022-08-25T04:06:53;98172.38;;;12.86;87.83
19751;BME280;4663;49.120;9.730;2022-08-25T04:09:18;98165.78;;;12.95;87.80
19751;BME280;4663;49.120;9.730;2022-08-25T04:11:44;98172.44;;;12.93;88.25
19751;BME280;4663;49.120;9.730;2022-08-25T04:14:09;98165.50;;;12.83;88.07
19751;BME280;4663;49.120;9.730;2022-08-25T04:16:35;98173.03;;;12.60;90.11
19751;BME280;4663;49.120;9.730;2022-08-25T04:19:04;98166.00;;;12.65;90.81
19751;BME280;4663;49.120;9.730;2022-08-25T04:21:30;98163.38;;;12.50;91.28
19751;BME280;4663;49.120;9.730;2022-08-25T04:23:57;98152.75;;;12.49;91.38
19751;BME280;4663;49.120;9.730;2022-08-25T04:26:37;98155.03;;;12.52;89.75
19751;BME280;4663;49.120;9.730;2022-08-25T04:29:06;98147.66;;;12.67;88.35
19751;BME280;4663;49.120;9.730;2022-08-25T04:31:34;98145.09;;;12.59;88.02
19751;BME280;4663;49.120;9.730;2022-08-25T04:34:04;98144.19;;;12.74;87.21
19751;BME280;4663;49.120;9.730;2022-08-25T04:36:30;98131.63;;;12.66;87.08
19751;BME280;4663;49.120;9.730;2022-08-25T04:38:56;98137.28;;;12.71;87.94
19751;BME280;4663;49.120;9.730;2022-08-25T04:41:22;98125.53;;;12.57;89.56
19751;BME280;4663;49.120;9.730;2022-08-25T04:43:48;98127.91;;;12.45;90.34
19751;BME280;4663;49.120;9.730;2022-08-25T04:48:42;98130.09;;;12.56;89.16
19751;BME280;4663;49.120;9.730;2022-08-25T04:51:11;98133.47;;;12.58;88.54
19751;BME280;4663;49.120;9.730;2022-08-25T04:53:38;98133.50;;;12.65;89.21
19751;BME280;4663;49.120;9.730;2022-08-25T04:56:06;98151.38;;;12.60;90.02
19751;BME280;4663;49.120;9.730;2022-08-25T04:58:32;98152.22;;;12.60;89.68
19751;BME280;4663;49.120;9.730;2022-08-25T05:01:23;98148.56;;;12.75;89.76
19751;BME280;4663;49.120;9.730;2022-08-25T05:03:55;98155.75;;;12.89;87.91
19751;BME280;4663;49.120;9.730;2022-08-25T05:06:21;98147.84;;;12.94;89.09
19751;BME280;4663;49.120;9.730;2022-08-25T05:08:47;98143.41;;;12.80;88.83
19751;BME280;4663;49.120;9.730;2022-08-25T05:11:14;98143.41;;;12.80;90.17
19751;BME280;4663;49.120;9.730;2022-08-25T05:13:45;98154.25;;;13.15;88.96
19751;BME280;4663;49.120;9.730;2022-08-25T05:16:12;98146.34;;;13.63;86.78
19751;BME280;4663;49.120;9.730;2022-08-25T05:18:37;98157.03;;;13.71;85.77
19751;BME280;4663;49.120;9.730;2022-08-25T05:21:09;98160.94;;;13.19;88.25
19751;BME280;4663;49.120;9.730;2022-08-25T05:23:35;98162.13;;;13.03;89.73
19751;BME280;4663;49.120;9.730;2022-08-25T05:26:04;98178.34;;;12.75;90.74
19751;BME280;4663;49.120;9.730;2022-08-25T05:28:30;98170.59;;;12.43;92.23
19751;BME280;4663;49.120;9.730;2022-08-25T05:30:58;98153.34;;;12.73;90.74
19751;BME280;4663;49.120;9.730;2022-08-25T05:33:24;98155.84;;;13.03;89.53
19751;BME280;4663;49.120;9.730;2022-08-25T05:35:50;98162.41;;;12.87;91.04
19751;BME280;4663;49.120;9.730;2022-08-25T05:38:16;98159.75;;;13.22;89.70
19751;BME280;4663;49.120;9.730;2022-08-25T05:40:41;98158.63;;;13.52;88.18
19751;BME280;4663;49.120;9.730;2022-08-25T05:43:06;98164.22;;;12.79;91.17
19751;BME280;4663;49.120;9.730;2022-08-25T05:45:33;98152.94;;;13.46;88.52
19751;BME280;4663;49.120;9.730;2022-08-25T05:48:00;98151.97;;;13.12;88.87
19751;BME280;4663;49.120;9.730;2022-08-25T05:50:25;98149.63;;;13.02;89.16
19751;BME280;4663;49.120;9.730;2022-08-25T05:52:51;98153.03;;;13.60;88.08
19751;BME280;4663;49.120;9.730;2022-08-25T05:55:17;98144.63;;;14.17;86.06
19751;BME280;4663;49.120;9.730;2022-08-25T05:57:42;98136.69;;;14.56;84.40
19751;BME280;4663;49.120;9.730;2022-08-25T06:00:09;98126.88;;;14.21;85.90
19751;BME280;4663;49.120;9.730;2022-08-25T06:02:36;98132.31;;;14.62;84.35
19751;BME280;4663;49.120;9.730;2022-08-25T06:05:06;98132.31;;;14.15;86.04
19751;BME280;4663;49.120;9.730;2022-08-25T06:07:32;98127.31;;;14.32;85.89
19751;BME280;4663;49.120;9.730;2022-08-25T06:09:58;98123.97;;;14.43;85.73
19751;BME280;4663;49.120;9.730;2022-08-25T06:12:23;98122.28;;;14.96;83.81
19751;BME280;4663;49.120;9.730;2022-08-25T06:14:49;98123.59;;;15.46;83.26
19751;BME280;4663;49.120;9.730;2022-08-25T06:17:15;98122.69;;;15.66;82.08
19751;BME280;4663;49.120;9.730;2022-08-25T06:19:41;98133.13;;;15.69;82.55
19751;BME280;4663;49.120;9.730;2022-08-25T06:22:07;98130.94;;;16.17;81.04
19751;BME280;4663;49.120;9.730;2022-08-25T06:24:32;98119.41;;;15.89;80.74
19751;BME280;4663;49.120;9.730;2022-08-25T06:26:58;98117.25;;;16.81;79.63
19751;BME280;4663;49.120;9.730;2022-08-25T06:29:25;98117.00;;;16.39;78.91
19751;BME280;4663;49.120;9.730;2022-08-25T06:31:50;98108.31;;;16.74;78.51
19751;BME280;4663;49.120;9.730;2022-08-25T06:34:16;98116.16;;;16.64;78.88
19751;BME280;4663;49.120;9.730;2022-08-25T06:36:42;98119.97;;;17.00;78.68
19751;BME280;4663;49.120;9.730;2022-08-25T06:39:08;98116.69;;;17.36;77.61
19751;BME280;4663;49.120;9.730;2022-08-25T06:41:33;98113.28;;;17.71;77.69
19751;BME280;4663;49.120;9.730;2022-08-25T06:43:59;98109.97;;;18.00;78.21
19751;BME280;4663;49.120;9.730;2022-08-25T06:46:25;98105.81;;;18.87;75.69
19751;BME280;4663;49.120;9.730;2022-08-25T06:48:52;98110.88;;;18.48;77.38
19751;BME280;4663;49.120;9.730;2022-08-25T06:51:20;98111.16;;;18.58;76.08
19751;BME280;4663;49.120;9.730;2022-08-25T06:53:47;98116.63;;;18.82;76.29
19751;BME280;4663;49.120;9.730;2022-08-25T06:56:18;98111.41;;;18.69;76.61
19751;BME280;4663;49.120;9.730;2022-08-25T06:58:45;98103.16;;;19.70;74.63
19751;BME280;4663;49.120;9.730;2022-08-25T07:01:14;98107.25;;;20.13;72.35
19751;BME280;4663;49.120;9.730;2022-08-25T07:03:40;98104.59;;;20.01;72.87
19751;BME280;4663;49.120;9.730;2022-08-25T07:06:07;98116.06;;;20.15;72.83
19751;BME280;4663;49.120;9.730;2022-08-25T07:08:33;98109.84;;;20.54;70.62
19751;BME280;4663;49.120;9.730;2022-08-25T07:11:09;98105.81;;;21.86;68.25
19751;BME280;4663;49.120;9.730;2022-08-25T07:13:36;98109.63;;;21.85;68.74
19751;BME280;4663;49.120;9.730;2022-08-25T07:16:02;98115.34;;;20.72;69.52
19751;BME280;4663;49.120;9.730;2022-08-25T07:18:28;98114.47;;;21.28;69.29
19751;BME280;4663;49.120;9.730;2022-08-25T07:20:54;98113.81;;;21.21;69.64
19751;BME280;4663;49.120;9.730;2022-08-25T07:23:21;98115.94;;;20.96;69.48
19751;BME280;4663;49.120;9.730;2022-08-25T07:25:46;98104.28;;;22.61;66.29
19751;BME280;4663;49.120;9.730;2022-08-25T07:28:13;98105.16;;;23.90;64.22
19751;BME280;4663;49.120;9.730;2022-08-25T07:30:39;98110.41;;;24.80;62.00
19751;BME280;4663;49.120;9.730;2022-08-25T07:33:05;98108.34;;;23.50;62.94
19751;BME280;4663;49.120;9.730;2022-08-25T07:35:30;98110.97;;;23.19;64.37
19751;BME280;4663;49.120;9.730;2022-08-25T07:37:57;98101.03;;;24.86;61.86
19751;BME280;4663;49.120;9.730;2022-08-25T07:40:30;98101.47;;;25.85;58.98
19751;BME280;4663;49.120;9.730;2022-08-25T07:42:58;98096.56;;;26.22;58.11
19751;BME280;4663;49.120;9.730;2022-08-25T07:45:26;98103.47;;;26.54;57.12
19751;BME280;4663;49.120;9.730;2022-08-25T07:48:03;98102.75;;;26.09;57.36
19751;BME280;4663;49.120;9.730;2022-08-25T07:50:30;98105.41;;;25.79;59.36
19751;BME280;4663;49.120;9.730;2022-08-25T07:52:56;98094.22;;;25.55;57.97
19751;BME280;4663;49.120;9.730;2022-08-25T07:55:24;98088.09;;;23.98;60.65
19751;BME280;4663;49.120;9.730;2022-08-25T07:57:51;98095.41;;;25.27;60.19
19751;BME280;4663;49.120;9.730;2022-08-25T08:00:17;98083.75;;;25.41;59.18
19751;BME280;4663;49.120;9.730;2022-08-25T08:02:42;98083.34;;;26.14;58.64
19751;BME280;4663;49.120;9.730;2022-08-25T08:05:10;98083.19;;;27.62;56.07
19751;BME280;4663;49.120;9.730;2022-08-25T08:07:35;98077.41;;;27.58;55.34
19751;BME280;4663;49.120;9.730;2022-08-25T08:10:02;98082.19;;;27.09;55.75
19751;BME280;4663;49.120;9.730;2022-08-25T08:12:28;98083.19;;;26.70;56.31
19751;BME280;4663;49.120;9.730;2022-08-25T08:14:53;98097.75;;;24.73;59.45
19751;BME280;4663;49.120;9.730;2022-08-25T08:17:19;98088.78;;;26.59;57.47
19751;BME280;4663;49.120;9.730;2022-08-25T08:19:45;98093.88;;;25.66;58.34
19751;BME280;4663;49.120;9.730;2022-08-25T08:22:12;98083.91;;;24.99;59.21
19751;BME280;4663;49.120;9.730;2022-08-25T08:24:40;98080.66;;;24.19;59.61
19751;BME280;4663;49.120;9.730;2022-08-25T08:27:09;98076.47;;;25.00;59.06
19751;BME280;4663;49.120;9.730;2022-08-25T08:29:35;98082.41;;;25.38;59.53
19751;BME280;4663;49.120;9.730;2022-08-25T08:32:02;98082.38;;;25.44;58.04
19751;BME280;4663;49.120;9.730;2022-08-25T08:34:29;98079.88;;;25.42;57.53
19751;BME280;4663;49.120;9.730;2022-08-25T08:36:54;98082.41;;;26.64;56.31
19751;BME280;4663;49.120;9.730;2022-08-25T08:39:20;98068.16;;;27.88;54.14
19751;BME280;4663;49.120;9.730;2022-08-25T08:53:18;98057.53;;;28.28;53.09
19751;BME280;4663;49.120;9.730;2022-08-25T08:55:53;98064.97;;;25.48;57.05
19751;BME280;4663;49.120;9.730;2022-08-25T09:01:09;98042.88;;;26.83;54.72
19751;BME280;4663;49.120;9.730;2022-08-25T09:03:39;98043.06;;;26.67;55.16
19751;BME280;4663;49.120;9.730;2022-08-25T09:06:27;98047.94;;;27.68;54.47
19751;BME280;4663;49.120;9.730;2022-08-25T09:08:57;98046.97;;;29.06;52.94
19751;BME280;4663;49.120;9.730;2022-08-25T09:16:54;98033.56;;;28.94;51.84
19751;BME280;4663;49.120;9.730;2022-08-25T09:22:27;98020.91;;;28.59;50.83
19751;BME280;4663;49.120;9.730;2022-08-25T09:30:12;98011.66;;;29.71;49.61
19751;BME280;4663;49.120;9.730;2022-08-25T09:32:41;98016.66;;;30.06;49.23
19751;BME280;4663;49.120;9.730;2022-08-25T09:35:13;98007.66;;;29.63;49.67
19751;BME280;4663;49.120;9.730;2022-08-25T09:37:42;97999.03;;;28.58;50.78
19751;BME280;4663;49.120;9.730;2022-08-25T09:40:08;97987.41;;;28.84;49.35
19751;BME280;4663;49.120;9.730;2022-08-25T09:42:48;97978.97;;;27.47;50.70
19751;BME280;4663;49.120;9.730;2022-08-25T09:45:15;97987.31;;;27.42;50.85
19751;BME280;4663;49.120;9.730;2022-08-25T09:47:44;97991.41;;;27.06;51.93
19751;BME280;4663;49.120;9.730;2022-08-25T09:50:17;97979.69;;;29.23;49.44
19751;BME280;4663;49.120;9.730;2022-08-25T09:52:44;97986.09;;;28.67;50.24
19751;BME280;4663;49.120;9.730;2022-08-25T09:57:51;97972.63;;;28.75;49.56
19751;BME280;4663;49.120;9.730;2022-08-25T10:05:33;97970.50;;;30.69;47.47
19751;BME280;4663;49.120;9.730;2022-08-25T10:08:14;97957.28;;;28.49;49.48
19751;BME280;4663;49.120;9.730;2022-08-25T10:10:54;97971.25;;;28.44;50.45
19751;BME280;4663;49.120;9.730;2022-08-25T10:13:41;97959.13;;;28.54;49.19
19751;BME280;4663;49.120;9.730;2022-08-25T10:16:23;97944.53;;;28.34;50.00
19751;BME280;4663;49.120;9.730;2022-08-25T10:19:22;97955.56;;;28.06;50.12
19751;BME280;4663;49.120;9.730;2022-08-25T10:22:07;97956.25;;;28.87;48.56
19751;BME280;4663;49.120;9.730;2022-08-25T10:24:33;97952.56;;;28.35;49.97
19751;BME280;4663;49.120;9.730;2022-08-25T10:27:08;97956.47;;;28.91;49.37
19751;BME280;4663;49.120;9.730;2022-08-25T10:29:47;97944.13;;;28.97;49.73
19751;BME280;4663;49.120;9.730;2022-08-25T10:34:48;97935.50;;;26.60;52.90
19751;BME280;4663;49.120;9.730;2022-08-25T10:42:28;97927.66;;;28.16;50.52
19751;BME280;4663;49.120;9.730;2022-08-25T10:51:42;97922.97;;;28.31;51.22
19751;BME280;4663;49.120;9.730;2022-08-25T10:56:37;97911.66;;;28.27;50.40
19751;BME280;4663;49.120;9.730;2022-08-25T11:04:43;97909.50;;;27.77;50.25
19751;BME280;4663;49.120;9.730;2022-08-25T11:07:27;97915.34;;;28.65;49.30
19751;BME280;4663;49.120;9.730;2022-08-25T11:10:01;97918.56;;;28.72;50.14
19751;BME280;4663;49.120;9.730;2022-08-25T11:14:57;97901.34;;;28.14;49.70
19751;BME280;4663;49.120;9.730;2022-08-25T11:17:26;97908.97;;;28.36;50.67
19751;BME280;4663;49.120;9.730;2022-08-25T11:20:03;97906.72;;;28.52;49.91
19751;BME280;4663;49.120;9.730;2022-08-25T11:22:33;97911.75;;;27.75;51.17
19751;BME280;4663;49.120;9.730;2022-08-25T11:25:25;97901.91;;;26.72;52.19
19751;BME280;4663;49.120;9.730;2022-08-25T11:28:07;97907.38;;;27.88;51.79
19751;BME280;4663;49.120;9.730;2022-08-25T11:30:35;97902.50;;;28.27;50.53
19751;BME280;4663;49.120;9.730;2022-08-25T11:33:02;97894.38;;;27.36;51.02
19751;BME280;4663;49.120;9.730;2022-08-25T11:35:32;97889.41;;;27.32;51.25
19751;BME280;4663;49.120;9.730;2022-08-25T11:40:58;97881.78;;;25.88;52.38
19751;BME280;4663;49.120;9.730;2022-08-25T11:51:47;97868.06;;;27.52;49.32
19751;BME280;4663;49.120;9.730;2022-08-25T11:57:01;97874.16;;;27.68;50.42
19751;BME280;4663;49.120;9.730;2022-08-25T12:04:59;97867.72;;;27.73;49.86
19751;BME280;4663;49.120;9.730;2022-08-25T12:07:56;97859.25;;;26.73;50.93
19751;BME280;4663;49.120;9.730;2022-08-25T12:11:00;97856.06;;;27.57;50.95
19751;BME280;4663;49.120;9.730;2022-08-25T12:16:06;97862.63;;;27.94;49.23
19751;BME280;4663;49.120;9.730;2022-08-25T12:23:43;97857.34;;;27.79;50.54
19751;BME280;4663;49.120;9.730;2022-08-25T12:37:01;97842.44;;;26.89;50.50
19751;BME280;4663;49.120;9.730;2022-08-25T12:39:32;97846.41;;;27.21;50.53
19751;BME280;4663;49.120;9.730;2022-08-25T12:42:05;97844.66;;;27.92;49.67
19751;BME280;4663;49.120;9.730;2022-08-25T12:44:33;97850.63;;;27.99;49.67
19751;BME280;4663;49.120;9.730;2022-08-25T12:47:27;97837.88;;;27.98;49.52
19751;BME280;4663;49.120;9.730;2022-08-25T12:52:49;97828.13;;;27.87;48.52
19751;BME280;4663;49.120;9.730;2022-08-25T12:55:14;97838.31;;;26.86;50.57
19751;BME280;4663;49.120;9.730;2022-08-25T12:57:54;97840.53;;;27.56;50.50
19751;BME280;4663;49.120;9.730;2022-08-25T13:00:24;97838.69;;;27.84;48.67
19751;BME280;4663;49.120;9.730;2022-08-25T13:03:18;97844.44;;;27.88;49.51
19751;BME280;4663;49.120;9.730;2022-08-25T13:06:04;97830.19;;;27.62;50.10
19751;BME280;4663;49.120;9.730;2022-08-25T13:11:53;97846.56;;;27.77;49.81
19751;BME280;4663;49.120;9.730;2022-08-25T13:14:37;97828.19;;;27.67;49.16
19751;BME280;4663;49.120;9.730;2022-08-25T13:17:03;97826.34;;;27.63;49.28
19751;BME280;4663;49.120;9.730;2022-08-25T13:19:29;97826.34;;;27.63;49.16
19751;BME280;4663;49.120;9.730;2022-08-25T13:21:56;97818.56;;;27.93;49.11
19751;BME280;4663;49.120;9.730;2022-08-25T13:24:31;97810.13;;;27.98;49.03
19751;BME280;4663;49.120;9.730;2022-08-25T13:27:03;97816.09;;;28.33;48.89
19751;BME280;4663;49.120;9.730;2022-08-25T13:29:31;97808.50;;;27.97;49.19
19751;BME280;4663;49.120;9.730;2022-08-25T13:31:58;97803.38;;;27.90;49.45
19751;BME280;4663;49.120;9.730;2022-08-25T13:34:28;97800.50;;;28.09;49.43
19751;BME280;4663;49.120;9.730;2022-08-25T13:36:55;97806.97;;;27.91;49.54
19751;BME280;4663;49.120;9.730;2022-08-25T13:39:40;97810.97;;;28.41;48.70
19751;BME280;4663;49.120;9.730;2022-08-25T13:42:12;97795.94;;;28.56;48.05
19751;BME280;4663;49.120;9.730;2022-08-25T13:44:38;97813.03;;;28.21;49.20
19751;BME280;4663;49.120;9.730;2022-08-25T13:49:30;97792.28;;;27.90;48.84
19751;BME280;4663;49.120;9.730;2022-08-25T13:51:55;97790.97;;;28.02;48.77
19751;BME280;4663;49.120;9.730;2022-08-25T13:54:47;97782.03;;;28.05;48.48
19751;BME280;4663;49.120;9.730;2022-08-25T13:57:20;97782.53;;;28.07;48.53
19751;BME280;4663;49.120;9.730;2022-08-25T13:59:49;97775.22;;;28.11;48.20
19751;BME280;4663;49.120;9.730;2022-08-25T14:05:04;97777.94;;;27.07;49.95
19751;BME280;4663;49.120;9.730;2022-08-25T14:07:29;97772.38;;;27.27;49.95
19751;BME280;4663;49.120;9.730;2022-08-25T14:09:59;97775.75;;;27.71;49.38
19751;BME280;4663;49.120;9.730;2022-08-25T14:15:27;97771.47;;;27.31;49.23
19751;BME280;4663;49.120;9.730;2022-08-25T14:18:10;97763.94;;;27.18;49.55
19751;BME280;4663;49.120;9.730;2022-08-25T14:20:43;97760.16;;;27.28;50.22
19751;BME280;4663;49.120;9.730;2022-08-25T14:23:12;97757.38;;;27.28;49.63
19751;BME280;4663;49.120;9.730;2022-08-25T14:25:39;97755.31;;;27.19;49.92
19751;BME280;4663;49.120;9.730;2022-08-25T14:28:08;97756.38;;;27.04;49.72
19751;BME280;4663;49.120;9.730;2022-08-25T14:30:39;97768.88;;;27.02;50.00
19751;BME280;4663;49.120;9.730;2022-08-25T14:33:05;97757.16;;;26.52;50.68
19751;BME280;4663;49.120;9.730;2022-08-25T14:35:31;97758.16;;;26.62;50.44
19751;BME280;4663;49.120;9.730;2022-08-25T14:37:56;97757.75;;;26.49;50.63
19751;BME280;4663;49.120;9.730;2022-08-25T14:40:22;97757.09;;;26.58;50.62
19751;BME280;4663;49.120;9.730;2022-08-25T14:42:48;97757.84;;;26.63;50.28
19751;BME280;4663;49.120;9.730;2022-08-25T14:45:15;97749.25;;;26.65;50.70
19751;BME280;4663;49.120;9.730;2022-08-25T14:47:41;97753.84;;;26.50;50.24
19751;BME280;4663;49.120;9.730;2022-08-25T14:50:07;97740.97;;;26.65;50.31
19751;BME280;4663;49.120;9.730;2022-08-25T14:52:34;97741.84;;;26.60;50.56
19751;BME280;4663;49.120;9.730;2022-08-25T14:55:00;97748.41;;;26.45;51.53
19751;BME280;4663;49.120;9.730;2022-08-25T14:57:25;97748.84;;;26.33;51.96
19751;BME280;4663;49.120;9.730;2022-08-25T14:59:51;97745.94;;;26.43;52.22
19751;BME280;4663;49.120;9.730;2022-08-25T15:02:19;97731.81;;;26.45;51.17
19751;BME280;4663;49.120;9.730;2022-08-25T15:04:55;97726.97;;;26.56;50.42
19751;BME280;4663;49.120;9.730;2022-08-25T15:07:22;97726.78;;;26.47;50.56
19751;BME280;4663;49.120;9.730;2022-08-25T15:10:07;97719.03;;;26.49;49.91
19751;BME280;4663;49.120;9.730;2022-08-25T15:12:33;97727.34;;;26.30;50.55
19751;BME280;4663;49.120;9.730;2022-08-25T15:14:59;97725.16;;;26.46;50.55
19751;BME280;4663;49.120;9.730;2022-08-25T15:17:26;97737.72;;;26.38;50.78